Terminal Aerodrome Forecast
Issued by NWS

Home | Current Version | Previous Version | Graphics & Text | Print | Product List | Glossary On
Versions: 1 2 3 4 5 6 7 8 9 10 11 12 13 14 15 16 17 18 19 20 21 22 23
000
FTUS43 KABR 252300 AAA
TAFMBG
TAF AMD
KMBG 252309Z 2523/2618 18008KT 3/4SM -SN BR BKN005 OVC009
     FM260000 33014KT 6SM -SN OVC010
     FM260400 34022G30KT P6SM OVC015
     FM261200 35014KT P6SM OVC015
     FM261600 36010KT P6SM OVC020=

USA.gov is the U.S. government's official web portal to all federal, state and local government web resources and services.